createdAt,value
2023-02-01T00:00:20.347Z,7.40
2023-02-01T00:02:23.371Z,7.80
2023-02-01T00:04:27.686Z,7.80
2023-02-01T00:06:30.459Z,7.90
2023-02-01T00:08:33.245Z,7.90
2023-02-01T00:10:36.014Z,7.60
2023-02-01T00:12:38.766Z,7.90
2023-02-01T00:14:41.512Z,7.80
2023-02-01T00:16:44.276Z,7.90
2023-02-01T00:18:48.341Z,7.90
2023-02-01T00:20:52.354Z,7.80
2023-02-01T00:22:55.066Z,7.90
2023-02-01T00:24:57.821Z,7.90
2023-02-01T00:27:00.571Z,7.70
2023-02-01T00:29:04.393Z,7.70
2023-02-01T00:31:07.376Z,7.30
2023-02-01T00:33:10.198Z,7.60
2023-02-01T00:35:12.905Z,7.60
2023-02-01T00:37:16.971Z,7.90
2023-02-01T00:39:19.713Z,7.70
2023-02-01T00:41:23.549Z,7.70
2023-02-01T00:43:26.250Z,7.70
2023-02-01T00:45:28.982Z,7.60
2023-02-01T00:47:31.735Z,7.70
2023-02-01T00:49:34.445Z,7.60
2023-02-01T00:51:37.235Z,7.60
2023-02-01T00:53:41.709Z,7.80
2023-02-01T00:55:47.006Z,7.80
2023-02-01T00:57:49.775Z,7.90
2023-02-01T00:59:52.534Z,8.10
2023-02-01T01:01:55.291Z,8.20
2023-02-01T01:04:00.197Z,8.30
2023-02-01T01:06:04.740Z,8.30
2023-02-01T01:08:07.474Z,8.10
2023-02-01T01:10:12.750Z,8.10
2023-02-01T01:12:15.448Z,8.10
2023-02-01T01:14:18.199Z,8.20
2023-02-01T01:16:23.275Z,8.30
2023-02-01T01:18:26.124Z,8.50
2023-02-01T01:20:28.900Z,8.40
2023-02-01T01:22:31.758Z,8.50
2023-02-01T01:24:34.558Z,8.60
2023-02-01T01:26:39.152Z,8.70
2023-02-01T01:28:41.941Z,8.80
2023-02-01T01:30:44.830Z,8.70
2023-02-01T01:32:47.602Z,8.60
2023-02-01T01:34:50.420Z,8.70
2023-02-01T01:36:53.163Z,8.70
2023-02-01T01:38:56.173Z,8.50
2023-02-01T01:40:58.887Z,8.30
2023-02-01T01:43:02.999Z,8.40
2023-02-01T01:45:08.325Z,8.40
2023-02-01T01:47:11.998Z,8.40
2023-02-01T01:49:17.538Z,7.80
2023-02-01T01:51:22.821Z,8.10
2023-02-01T01:53:28.814Z,8.10
2023-02-01T01:55:36.552Z,8.00
2023-02-01T01:57:43.924Z,8.20
2023-02-01T01:59:52.066Z,8.00
2023-02-01T02:01:55.172Z,7.90
2023-02-01T02:03:59.040Z,7.60
2023-02-01T02:06:04.610Z,7.90
2023-02-01T02:08:07.418Z,7.90
2023-02-01T02:10:12.612Z,8.10
2023-02-01T02:12:15.375Z,8.00
2023-02-01T02:14:20.842Z,8.20
2023-02-01T02:16:54.205Z,8.20
2023-02-01T02:19:12.476Z,8.10
2023-02-01T02:21:19.810Z,8.30
2023-02-01T02:23:44.203Z,8.20
2023-02-01T02:26:10.015Z,8.10
2023-02-01T02:28:33.027Z,8.10
2023-02-01T02:30:56.061Z,8.10
2023-02-01T02:33:39.530Z,8.10
2023-02-01T02:35:49.024Z,8.00
2023-02-01T02:38:01.734Z,7.90
2023-02-01T02:40:14.494Z,8.10
2023-02-01T02:42:45.097Z,8.20
2023-02-01T02:45:08.889Z,8.10
2023-02-01T02:47:25.805Z,8.10
2023-02-01T02:49:38.664Z,8.20
2023-02-01T02:52:05.109Z,8.20
2023-02-01T02:54:30.073Z,8.20
2023-02-01T02:56:50.693Z,8.20
2023-02-01T02:59:13.338Z,8.10
2023-02-01T03:01:33.824Z,8.00
2023-02-01T03:03:57.663Z,8.00
2023-02-01T03:06:01.721Z,8.10
2023-02-01T03:08:07.372Z,8.00
2023-02-01T03:10:19.365Z,8.20
2023-02-01T03:12:39.823Z,8.20
2023-02-01T03:14:45.515Z,8.20
2023-02-01T03:16:53.627Z,8.20
2023-02-01T03:19:01.123Z,8.10
2023-02-01T03:21:10.200Z,8.20
2023-02-01T03:23:17.850Z,7.80
2023-02-01T03:25:24.922Z,7.70
2023-02-01T03:27:34.333Z,7.30
2023-02-01T03:29:42.760Z,7.50
2023-02-01T03:31:45.831Z,7.30
2023-02-01T03:33:48.903Z,7.40
2023-02-01T03:36:00.877Z,7.50
2023-02-01T03:38:11.413Z,7.50
2023-02-01T03:40:17.388Z,7.70
2023-02-01T03:42:24.856Z,7.90
2023-02-01T03:44:31.958Z,7.90
2023-02-01T03:46:37.290Z,8.00
2023-02-01T03:48:41.369Z,8.20
2023-02-01T03:50:49.412Z,8.20
2023-02-01T03:52:56.219Z,8.30
2023-02-01T03:55:01.552Z,8.20
2023-02-01T03:57:08.594Z,8.20
2023-02-01T03:59:11.594Z,8.40
2023-02-01T04:01:14.306Z,8.40
2023-02-01T04:03:17.092Z,8.40
2023-02-01T04:05:19.886Z,8.20
2023-02-01T04:07:22.591Z,8.30
2023-02-01T04:09:25.645Z,8.40
2023-02-01T04:11:30.090Z,8.50
2023-02-01T04:13:32.829Z,8.40
2023-02-01T04:15:35.912Z,8.40
2023-02-01T04:19:40.327Z,8.20
2023-02-01T04:21:42.994Z,8.10
2023-02-01T04:23:45.710Z,8.10
2023-02-01T04:25:48.515Z,8.10
2023-02-01T04:27:52.596Z,8.10
2023-02-01T04:29:56.996Z,8.20
2023-02-01T04:32:01.106Z,8.10
2023-02-01T04:34:03.851Z,8.10
2023-02-01T04:36:06.862Z,8.00
2023-02-01T04:38:09.592Z,7.90
2023-02-01T04:40:13.558Z,8.10
2023-02-01T04:42:16.298Z,8.20
2023-02-01T04:44:21.322Z,8.10
2023-02-01T04:46:24.118Z,8.20
2023-02-01T04:48:26.838Z,8.30
2023-02-01T04:50:29.585Z,8.30
2023-02-01T04:52:32.307Z,8.10
2023-02-01T04:54:35.303Z,8.00
2023-02-01T04:56:38.024Z,8.10
2023-02-01T04:58:40.792Z,7.70
2023-02-01T05:00:44.818Z,8.00
2023-02-01T05:02:47.583Z,8.20
2023-02-01T05:04:51.499Z,8.10
2023-02-01T05:06:54.206Z,8.20
2023-02-01T05:08:56.901Z,8.00
2023-02-01T05:10:59.738Z,7.90
2023-02-01T05:13:20.023Z,7.90
2023-02-01T05:15:22.716Z,8.10
2023-02-01T05:17:26.748Z,8.00
2023-02-01T05:19:29.447Z,8.10
2023-02-01T05:21:32.149Z,7.60
2023-02-01T05:23:54.949Z,7.40
2023-02-01T05:26:01.676Z,7.60
2023-02-01T05:28:04.463Z,7.80
2023-02-01T05:30:08.977Z,7.70
2023-02-01T05:32:22.034Z,7.80
2023-02-01T05:34:26.795Z,7.90
2023-02-01T05:36:29.559Z,7.90
2023-02-01T05:38:32.632Z,7.90
2023-02-01T05:40:35.344Z,8.10
2023-02-01T05:42:38.207Z,7.80
2023-02-01T05:44:40.902Z,8.00
2023-02-01T05:46:43.596Z,8.20
2023-02-01T05:48:46.291Z,8.20
2023-02-01T05:50:50.392Z,8.20
2023-02-01T05:52:53.132Z,8.20
2023-02-01T05:54:55.867Z,8.30
2023-02-01T05:56:58.662Z,8.40
2023-02-01T06:01:03.910Z,8.30
2023-02-01T06:03:06.791Z,8.30
2023-02-01T06:05:10.174Z,8.20
2023-02-01T06:07:14.228Z,8.20
2023-02-01T06:09:16.939Z,8.20
2023-02-01T06:11:31.910Z,8.20
2023-02-01T06:13:35.213Z,8.00
2023-02-01T06:15:38.541Z,7.80
2023-02-01T06:17:42.197Z,7.80
2023-02-01T06:19:45.774Z,7.50
2023-02-01T06:21:48.489Z,7.40
2023-02-01T06:23:52.765Z,7.60
2023-02-01T06:26:01.356Z,7.70
2023-02-01T06:28:06.646Z,7.50
2023-02-01T06:30:10.749Z,7.30
2023-02-01T06:32:13.447Z,7.20
2023-02-01T06:34:16.164Z,7.20
2023-02-01T06:36:19.713Z,7.30
2023-02-01T06:38:22.484Z,7.40
2023-02-01T06:40:26.591Z,7.30
2023-02-01T06:42:29.294Z,7.10
2023-02-01T06:44:32.015Z,7.30
2023-02-01T06:46:34.806Z,7.20
2023-02-01T06:48:37.526Z,7.10
2023-02-01T06:50:40.220Z,7.30
2023-02-01T06:52:42.955Z,7.30
2023-02-01T06:54:45.655Z,7.20
2023-02-01T06:56:49.741Z,7.50
2023-02-01T06:58:52.606Z,7.30
2023-02-01T07:00:55.653Z,7.60
2023-02-01T07:03:00.043Z,7.60
2023-02-01T07:05:02.773Z,7.30
2023-02-01T07:07:05.447Z,7.30
2023-02-01T07:09:09.010Z,7.40
2023-02-01T07:11:14.218Z,7.50
2023-02-01T07:13:18.276Z,7.20
2023-02-01T07:15:20.982Z,7.10
2023-02-01T07:17:23.687Z,7.30
2023-02-01T07:19:26.518Z,7.30
2023-02-01T07:21:29.671Z,7.40
2023-02-01T07:23:32.585Z,7.40
2023-02-01T07:25:36.635Z,7.20
2023-02-01T07:27:39.756Z,7.30
2023-02-01T07:29:43.799Z,7.10
2023-02-01T07:31:46.560Z,7.30
2023-02-01T07:33:52.408Z,7.40
2023-02-01T07:35:55.126Z,7.40
2023-02-01T07:37:59.941Z,7.50
2023-02-01T07:40:02.643Z,7.40
2023-02-01T07:42:05.442Z,7.40
2023-02-01T07:44:08.184Z,7.50
2023-02-01T07:46:13.590Z,7.40
2023-02-01T07:48:16.377Z,7.50
2023-02-01T07:50:19.379Z,7.40
2023-02-01T07:52:22.103Z,7.20
2023-02-01T07:54:24.812Z,7.30
2023-02-01T07:56:27.566Z,7.40
2023-02-01T07:58:30.747Z,7.30
2023-02-01T08:00:51.195Z,7.20
2023-02-01T08:02:55.235Z,7.10
2023-02-01T08:04:57.940Z,7.30
2023-02-01T08:07:00.713Z,7.50
2023-02-01T08:09:03.909Z,7.50
2023-02-01T08:11:08.336Z,7.50
2023-02-01T08:13:11.258Z,7.70
2023-02-01T08:15:14.302Z,7.70
2023-02-01T08:17:17.126Z,7.30
2023-02-01T08:19:21.231Z,7.60
2023-02-01T08:21:26.320Z,7.40
2023-02-01T08:23:29.005Z,7.70
2023-02-01T08:25:32.656Z,7.60
2023-02-01T08:27:35.638Z,7.00
2023-02-01T08:29:38.324Z,7.20
2023-02-01T08:31:42.838Z,6.80
2023-02-01T08:33:49.591Z,7.00
2023-02-01T08:35:53.625Z,6.80
2023-02-01T08:37:56.298Z,7.20
2023-02-01T08:39:58.985Z,7.20
2023-02-01T08:42:24.573Z,7.40
2023-02-01T08:44:27.283Z,7.60
2023-02-01T08:46:30.017Z,7.80
2023-02-01T08:48:33.463Z,7.50
2023-02-01T08:50:36.209Z,7.60
2023-02-01T08:52:40.330Z,7.30
2023-02-01T08:54:43.053Z,7.30
2023-02-01T08:56:45.836Z,7.30
2023-02-01T08:58:48.623Z,7.20
2023-02-01T09:00:52.054Z,7.50
2023-02-01T09:02:54.810Z,7.10
2023-02-01T09:05:00.655Z,7.30
2023-02-01T09:07:03.386Z,7.20
2023-02-01T09:09:07.641Z,7.40
2023-02-01T09:11:13.629Z,7.20
2023-02-01T09:13:16.352Z,6.70
2023-02-01T09:15:19.182Z,6.80
2023-02-01T09:17:21.871Z,6.80
2023-02-01T09:19:26.618Z,6.60
2023-02-01T09:21:30.090Z,7.00
2023-02-01T09:23:32.839Z,6.90
2023-02-01T09:25:39.089Z,7.30
2023-02-01T09:27:41.813Z,7.30
2023-02-01T09:29:44.549Z,7.20
2023-02-01T09:31:57.836Z,7.10
2023-02-01T09:34:06.541Z,7.40
2023-02-01T09:36:09.773Z,7.20
2023-02-01T09:38:12.521Z,7.20
2023-02-01T09:40:17.162Z,7.40
2023-02-01T09:42:36.791Z,7.30
2023-02-01T09:44:57.348Z,7.50
2023-02-01T09:47:01.016Z,7.50
2023-02-01T09:49:08.207Z,7.50
2023-02-01T09:51:17.639Z,7.60
2023-02-01T09:53:25.527Z,7.70
2023-02-01T09:55:37.802Z,7.90
2023-02-01T09:57:51.392Z,7.90
2023-02-01T09:59:59.706Z,7.70
2023-02-01T10:02:05.128Z,7.70
2023-02-01T10:04:11.114Z,7.80
2023-02-01T10:06:34.981Z,7.80
2023-02-01T10:08:58.101Z,8.10
2023-02-01T10:11:13.398Z,8.20
2023-02-01T10:13:29.440Z,8.00
2023-02-01T10:16:02.989Z,8.30
2023-02-01T10:18:23.168Z,8.60
2023-02-01T10:20:30.320Z,8.70
2023-02-01T10:23:10.343Z,8.70
2023-02-01T10:25:14.955Z,9.00
2023-02-01T10:27:21.753Z,8.50
2023-02-01T10:29:32.909Z,8.40
2023-02-01T10:31:39.326Z,8.40
2023-02-01T10:33:46.390Z,8.70
2023-02-01T10:35:54.477Z,8.90
2023-02-01T10:38:02.849Z,8.60
2023-02-01T10:40:17.940Z,7.90
2023-02-01T10:42:27.066Z,8.20
2023-02-01T10:44:33.160Z,8.40
2023-02-01T10:46:36.388Z,8.50
2023-02-01T10:48:41.829Z,8.80
2023-02-01T10:50:53.300Z,8.70
2023-02-01T10:53:01.013Z,8.70
2023-02-01T10:55:28.827Z,8.50
2023-02-01T10:57:32.832Z,8.30
2023-02-01T10:59:37.421Z,8.70
2023-02-01T11:01:42.847Z,8.60
2023-02-01T11:03:46.801Z,8.40
2023-02-01T11:05:50.385Z,8.60
2023-02-01T11:07:56.284Z,8.30
2023-02-01T11:09:59.799Z,8.60
2023-02-01T11:12:02.489Z,8.30
2023-02-01T11:14:16.712Z,8.30
2023-02-01T11:16:20.937Z,8.10
2023-02-01T11:18:29.317Z,8.60
2023-02-01T11:20:40.914Z,8.50
2023-02-01T11:22:49.199Z,8.60
2023-02-01T11:24:51.931Z,8.30
2023-02-01T11:26:57.680Z,8.40
2023-02-01T11:29:03.367Z,8.20
2023-02-01T11:31:10.602Z,8.60
2023-02-01T11:33:18.622Z,8.50
2023-02-01T11:35:23.072Z,8.70
2023-02-01T11:37:29.499Z,8.30
2023-02-01T11:39:34.634Z,8.70
2023-02-01T11:41:43.385Z,8.40
2023-02-01T11:43:55.138Z,8.50
2023-02-01T11:46:00.294Z,9.00
2023-02-01T11:48:03.643Z,9.00
2023-02-01T11:50:17.351Z,8.90
2023-02-01T11:52:32.718Z,8.90
2023-02-01T11:54:56.753Z,8.80
2023-02-01T11:57:17.276Z,8.70
2023-02-01T11:59:33.797Z,8.90
2023-02-01T12:01:51.976Z,8.80
2023-02-01T12:04:16.484Z,8.50
2023-02-01T12:06:31.406Z,8.40
2023-02-01T12:09:00.494Z,8.60
2023-02-01T12:11:30.680Z,8.90
2023-02-01T12:13:48.116Z,9.20
2023-02-01T12:16:02.253Z,9.10
2023-02-01T12:18:25.945Z,9.10
2023-02-01T12:20:56.628Z,8.90
2023-02-01T12:23:16.239Z,9.10
2023-02-01T12:25:28.475Z,8.90
2023-02-01T12:27:52.168Z,8.90
2023-02-01T12:30:12.912Z,8.70
2023-02-01T12:32:30.101Z,8.50
2023-02-01T12:34:53.010Z,8.80
2023-02-01T12:37:02.232Z,9.00
2023-02-01T12:39:19.914Z,9.30
2023-02-01T12:41:41.071Z,9.50
2023-02-01T12:43:49.089Z,9.30
2023-02-01T12:45:55.476Z,9.20
2023-02-01T12:48:06.054Z,9.20
2023-02-01T12:50:22.575Z,9.40
2023-02-01T12:52:36.102Z,9.60
2023-02-01T12:54:45.629Z,9.70
2023-02-01T12:56:51.139Z,9.50
2023-02-01T12:58:56.827Z,9.60
2023-02-01T13:01:04.176Z,9.80
2023-02-01T13:03:14.155Z,9.80
2023-02-01T13:05:20.169Z,9.70
2023-02-01T13:07:27.807Z,10.00
2023-02-01T13:09:36.886Z,10.10
2023-02-01T13:11:42.864Z,9.80
2023-02-01T13:13:51.715Z,9.90
2023-02-01T13:16:00.327Z,10.10
2023-02-01T13:18:07.520Z,10.20
2023-02-01T13:20:20.885Z,10.10
2023-02-01T13:22:28.749Z,10.00
2023-02-01T13:24:38.039Z,10.20
2023-02-01T13:26:42.169Z,10.20
2023-02-01T13:28:49.393Z,9.80
2023-02-01T13:31:15.541Z,9.90
2023-02-01T13:33:54.593Z,9.70
2023-02-01T13:36:18.790Z,9.50
2023-02-01T13:38:56.008Z,9.50
2023-02-01T13:41:17.888Z,9.80
2023-02-01T13:43:27.535Z,9.50
2023-02-01T13:45:33.855Z,9.20
2023-02-01T13:47:41.950Z,9.10
2023-02-01T13:49:44.839Z,9.10
2023-02-01T13:51:51.195Z,9.20
2023-02-01T13:53:54.879Z,9.20
2023-02-01T13:56:00.696Z,9.40
2023-02-01T13:58:15.459Z,9.50
2023-02-01T14:00:31.399Z,9.40
2023-02-01T14:03:16.785Z,9.50
2023-02-01T14:05:56.753Z,9.30
2023-02-01T14:08:13.679Z,9.40
2023-02-01T14:10:52.860Z,9.40
2023-02-01T14:13:06.027Z,9.60
2023-02-01T14:15:23.751Z,9.80
2023-02-01T14:17:37.749Z,9.80
2023-02-01T14:19:40.496Z,9.50
2023-02-01T14:21:49.884Z,9.30
2023-02-01T14:24:00.074Z,9.10
2023-02-01T14:26:15.401Z,9.40
2023-02-01T14:28:31.146Z,9.30
2023-02-01T14:30:34.197Z,9.20
2023-02-01T14:32:41.939Z,9.00
2023-02-01T14:34:53.981Z,9.10
2023-02-01T14:37:00.582Z,9.00
2023-02-01T14:39:05.291Z,9.00
2023-02-01T14:41:26.476Z,8.90
2023-02-01T14:44:13.153Z,8.90
2023-02-01T14:46:15.942Z,8.70
2023-02-01T14:48:46.117Z,8.70
2023-02-01T14:50:50.112Z,8.40
2023-02-01T14:53:05.911Z,7.90
2023-02-01T14:55:14.303Z,8.10
2023-02-01T14:57:20.553Z,8.00
2023-02-01T14:59:27.208Z,8.30
2023-02-01T15:01:32.571Z,8.40
2023-02-01T15:03:47.503Z,7.80
2023-02-01T15:05:56.992Z,8.10
2023-02-01T15:08:05.263Z,8.40
2023-02-01T15:10:10.069Z,8.50
2023-02-01T15:12:21.273Z,8.60
2023-02-01T15:14:24.073Z,8.20
2023-02-01T15:16:27.737Z,8.10
2023-02-01T15:18:30.910Z,7.90
2023-02-01T15:20:35.192Z,7.70
2023-02-01T15:22:38.107Z,7.60
2023-02-01T15:24:40.936Z,7.40
2023-02-01T15:26:43.816Z,7.50
2023-02-01T15:28:46.836Z,7.70
2023-02-01T15:30:58.660Z,7.50
2023-02-01T15:33:09.164Z,7.70
2023-02-01T15:35:44.245Z,7.60
2023-02-01T15:37:47.016Z,7.70
2023-02-01T15:40:08.886Z,7.70
2023-02-01T15:42:16.477Z,7.80
2023-02-01T15:44:32.442Z,7.90
2023-02-01T15:46:38.465Z,7.60
2023-02-01T15:48:48.584Z,7.10
2023-02-01T15:50:53.780Z,6.90
2023-02-01T15:52:57.396Z,6.20
2023-02-01T15:55:04.546Z,5.20
2023-02-01T15:57:07.386Z,4.50
2023-02-01T15:59:17.100Z,4.20
2023-02-01T16:01:20.652Z,4.20
2023-02-01T16:03:42.201Z,4.00
2023-02-01T16:05:45.719Z,4.10
2023-02-01T16:07:58.915Z,4.00
2023-02-01T16:10:07.264Z,4.00
2023-02-01T16:12:31.352Z,4.30
2023-02-01T16:14:34.035Z,4.20
2023-02-01T16:16:36.747Z,4.40
2023-02-01T16:18:39.456Z,4.40
2023-02-01T16:20:44.038Z,4.30
2023-02-01T16:22:46.731Z,4.20
2023-02-01T16:24:51.018Z,4.30
2023-02-01T16:26:53.845Z,4.50
2023-02-01T16:28:56.625Z,4.50
2023-02-01T16:30:59.704Z,4.80
2023-02-01T16:33:05.860Z,4.80
2023-02-01T16:35:19.938Z,4.60
2023-02-01T16:37:24.809Z,4.80
2023-02-01T16:39:28.617Z,4.90
2023-02-01T16:41:32.620Z,5.00
2023-02-01T16:43:35.348Z,5.10
2023-02-01T16:45:39.746Z,5.00
2023-02-01T16:47:49.241Z,5.10
2023-02-01T16:49:52.243Z,5.20
2023-02-01T16:51:59.492Z,5.10
2023-02-01T16:54:02.515Z,5.20
2023-02-01T16:56:14.448Z,5.20
2023-02-01T16:58:19.319Z,5.40
2023-02-01T17:00:24.879Z,5.40
2023-02-01T17:02:28.768Z,5.40
2023-02-01T17:04:31.654Z,5.40
2023-02-01T17:06:34.787Z,5.40
2023-02-01T17:08:39.715Z,5.20
2023-02-01T17:10:42.507Z,5.10
2023-02-01T17:12:45.224Z,5.30
2023-02-01T17:14:49.259Z,5.60
2023-02-01T17:16:52.927Z,5.50
2023-02-01T17:18:59.289Z,5.60
2023-02-01T17:21:03.905Z,5.40
2023-02-01T17:23:08.304Z,5.60
2023-02-01T17:25:17.446Z,5.70
2023-02-01T17:27:20.327Z,5.80
2023-02-01T17:29:23.381Z,5.60
2023-02-01T17:31:27.694Z,5.50
2023-02-01T17:33:36.491Z,5.60
2023-02-01T17:35:39.390Z,5.50
2023-02-01T17:37:42.034Z,5.70
2023-02-01T17:39:57.173Z,5.50
2023-02-01T17:42:00.190Z,5.60
2023-02-01T17:44:03.231Z,5.60
2023-02-01T17:46:08.244Z,5.80
2023-02-01T17:48:12.354Z,5.80
2023-02-01T17:50:15.599Z,6.00
2023-02-01T17:52:19.639Z,5.70
2023-02-01T17:54:22.608Z,5.50
2023-02-01T17:56:26.786Z,5.80
2023-02-01T17:58:33.318Z,5.80
2023-02-01T18:00:38.108Z,5.90
2023-02-01T18:02:42.184Z,6.00
2023-02-01T18:04:46.562Z,6.10
2023-02-01T18:06:49.276Z,6.00
2023-02-01T18:08:51.988Z,6.00
2023-02-01T18:10:56.375Z,5.90
2023-02-01T18:12:59.112Z,6.00
2023-02-01T18:15:01.843Z,6.10
2023-02-01T18:17:04.537Z,6.20
2023-02-01T18:19:07.309Z,6.00
2023-02-01T18:21:12.033Z,6.10
2023-02-01T18:23:17.858Z,5.70
2023-02-01T18:25:23.180Z,5.90
2023-02-01T18:27:27.311Z,6.00
2023-02-01T18:29:30.857Z,6.00
2023-02-01T18:31:34.667Z,6.10
2023-02-01T18:33:37.537Z,6.10
2023-02-01T18:35:40.790Z,6.20
2023-02-01T18:37:44.956Z,6.40
2023-02-01T18:39:47.620Z,6.60
2023-02-01T18:41:51.780Z,6.40
2023-02-01T18:43:54.688Z,6.40
2023-02-01T18:45:57.400Z,6.30
2023-02-01T18:48:00.737Z,6.40
2023-02-01T18:50:03.470Z,6.20
2023-02-01T18:52:07.060Z,5.90
2023-02-01T18:54:12.630Z,6.30
2023-02-01T18:56:18.100Z,6.20
2023-02-01T18:58:21.084Z,6.20
2023-02-01T19:00:23.891Z,6.10
2023-02-01T19:02:26.641Z,6.40
2023-02-01T19:04:30.234Z,6.50
2023-02-01T19:06:32.954Z,6.50
2023-02-01T19:08:36.029Z,6.60
2023-02-01T19:10:42.743Z,6.70
2023-02-01T19:12:46.072Z,6.60
2023-02-01T19:14:48.812Z,6.60
2023-02-01T19:16:51.581Z,6.70
2023-02-01T19:18:54.506Z,6.50
2023-02-01T19:21:04.501Z,6.60
2023-02-01T19:23:07.222Z,6.60
2023-02-01T19:25:13.909Z,6.40
2023-02-01T19:27:17.997Z,6.50
2023-02-01T19:29:20.760Z,6.60
2023-02-01T19:31:23.506Z,6.60
2023-02-01T19:33:26.279Z,6.60
2023-02-01T19:35:29.021Z,6.90
2023-02-01T19:37:31.717Z,6.80
2023-02-01T19:39:34.719Z,6.60
2023-02-01T19:41:37.449Z,6.60
2023-02-01T19:43:41.503Z,6.80
2023-02-01T19:45:44.414Z,6.80
2023-02-01T19:47:47.194Z,6.90
2023-02-01T19:49:49.909Z,6.70
2023-02-01T19:51:52.636Z,6.60
2023-02-01T19:53:55.340Z,6.40
2023-02-01T19:55:59.067Z,6.50
2023-02-01T19:58:05.183Z,6.70
2023-02-01T20:00:13.305Z,6.80
2023-02-01T20:02:16.465Z,6.30
2023-02-01T20:04:20.549Z,6.60
2023-02-01T20:06:23.275Z,6.60
2023-02-01T20:08:26.400Z,6.40
2023-02-01T20:10:29.207Z,6.80
2023-02-01T20:12:31.886Z,6.70
2023-02-01T20:14:34.589Z,6.40
2023-02-01T20:16:38.821Z,6.20
2023-02-01T20:18:42.290Z,6.40
2023-02-01T20:20:45.008Z,6.60
2023-02-01T20:22:47.731Z,6.40
2023-02-01T20:24:50.434Z,6.40
2023-02-01T20:26:54.261Z,6.40
2023-02-01T20:28:57.207Z,6.50
2023-02-01T20:31:00.026Z,6.80
2023-02-01T20:33:04.228Z,6.80
2023-02-01T20:35:07.924Z,6.60
2023-02-01T20:37:10.651Z,6.90
2023-02-01T20:39:13.363Z,6.80
2023-02-01T20:41:16.063Z,6.70
2023-02-01T20:43:18.921Z,6.90
2023-02-01T20:45:22.304Z,6.80
2023-02-01T20:47:25.097Z,6.90
2023-02-01T20:49:29.246Z,7.00
2023-02-01T20:51:32.275Z,6.80
2023-02-01T20:53:34.951Z,6.90
2023-02-01T20:55:37.673Z,6.90
2023-02-01T20:57:40.349Z,6.90
2023-02-01T20:59:43.081Z,7.00
2023-02-01T21:01:52.988Z,7.00
2023-02-01T21:03:55.775Z,7.10
2023-02-01T21:06:01.234Z,7.20
2023-02-01T21:08:04.035Z,7.10
2023-02-01T21:10:07.737Z,7.00
2023-02-01T21:12:10.526Z,6.90
2023-02-01T21:14:13.551Z,6.70
2023-02-01T21:16:16.331Z,6.60
2023-02-01T21:18:19.598Z,6.80
2023-02-01T21:20:22.345Z,6.70
2023-02-01T21:22:26.626Z,6.40
2023-02-01T21:24:29.377Z,6.40
2023-02-01T21:26:40.814Z,6.40
2023-02-01T21:28:43.864Z,6.50
2023-02-01T21:30:46.617Z,6.30
2023-02-01T21:32:50.027Z,6.30
2023-02-01T21:34:53.101Z,6.20
2023-02-01T21:36:55.879Z,6.20
2023-02-01T21:39:03.639Z,6.20
2023-02-01T21:41:20.596Z,6.50
2023-02-01T21:43:23.300Z,6.60
2023-02-01T21:45:26.386Z,6.50
2023-02-01T21:47:29.598Z,6.50
2023-02-01T21:49:32.519Z,6.70
2023-02-01T21:51:38.019Z,6.60
2023-02-01T21:53:40.746Z,6.60
2023-02-01T21:55:44.877Z,6.60
2023-02-01T21:57:47.834Z,6.60
2023-02-01T21:59:50.774Z,6.70
2023-02-01T22:01:54.092Z,6.20
2023-02-01T22:03:56.824Z,6.30
2023-02-01T22:06:00.597Z,6.60
2023-02-01T22:08:03.410Z,6.50
2023-02-01T22:10:07.347Z,6.70
2023-02-01T22:12:13.771Z,6.50
2023-02-01T22:14:17.389Z,6.70
2023-02-01T22:16:21.467Z,6.60
2023-02-01T22:18:24.566Z,6.60
2023-02-01T22:20:28.047Z,6.70
2023-02-01T22:22:30.756Z,6.90
2023-02-01T22:24:34.597Z,6.60
2023-02-01T22:26:37.597Z,6.40
2023-02-01T22:28:41.877Z,6.80
2023-02-01T22:30:44.790Z,6.50
2023-02-01T22:32:47.890Z,6.70
2023-02-01T22:34:50.604Z,6.70
2023-02-01T22:36:53.311Z,6.80
2023-02-01T22:38:57.553Z,6.80
2023-02-01T22:41:01.854Z,6.90
2023-02-01T22:43:04.551Z,6.90
2023-02-01T22:45:09.392Z,6.90
2023-02-01T22:47:12.117Z,6.90
2023-02-01T22:49:14.922Z,6.50
2023-02-01T22:51:19.445Z,6.70
2023-02-01T22:53:22.276Z,6.60
2023-02-01T22:55:25.373Z,6.50
2023-02-01T22:57:28.263Z,6.60
2023-02-01T22:59:30.977Z,6.30
2023-02-01T23:01:35.885Z,6.60
2023-02-01T23:03:39.791Z,6.80
2023-02-01T23:05:42.502Z,6.90
2023-02-01T23:07:47.711Z,6.80
2023-02-01T23:09:51.132Z,6.90
2023-02-01T23:11:54.809Z,6.80
2023-02-01T23:13:58.037Z,6.90
2023-02-01T23:16:04.658Z,6.70
2023-02-01T23:18:08.742Z,6.80
2023-02-01T23:20:15.274Z,6.80
2023-02-01T23:22:18.020Z,6.70
2023-02-01T23:24:20.768Z,6.90
2023-02-01T23:26:25.923Z,6.90
2023-02-01T23:28:29.468Z,7.00
2023-02-01T23:30:32.272Z,6.90
2023-02-01T23:32:36.007Z,6.90
2023-02-01T23:34:40.496Z,6.80
2023-02-01T23:36:43.234Z,6.80
2023-02-01T23:38:46.552Z,6.60
2023-02-01T23:40:51.455Z,6.90
2023-02-01T23:43:08.174Z,6.90
2023-02-01T23:45:11.857Z,6.70
2023-02-01T23:47:14.689Z,6.70
2023-02-01T23:49:18.679Z,6.60
2023-02-01T23:51:23.876Z,6.90
2023-02-01T23:53:26.761Z,7.00
2023-02-01T23:55:29.507Z,7.00
2023-02-01T23:57:32.209Z,6.90
2023-02-01T23:59:35.289Z,6.90
